Terminal Aerodrome Forecast
Issued by NWS

Home | Current Version | Previous Version | Text Only | Print | Product List | Glossary On
Versions: 1 2 3 4 5 6 7 8 9 10 11 12 13 14 15 16 17 18 19 20 21 22
000
FTUS42 KTBW 030041 AAA
TAFRSW
TAF AMD
KRSW 030041Z 0301/0324 VRB03KT P6SM -RA BKN050 BKN100
     FM030300 11004KT P6SM SCT040 BKN080
     FM030800 VRB03KT P6SM BKN090 BKN250
     FM032000 13006KT P6SM SCT040 BKN110=

USA.gov is the U.S. government's official web portal to all federal, state and local government web resources and services.